Time;durP1;ratioP1;P1;durP2;ratioP2;P2;SDS_P1;SDS_P2;PMS_P1;PMS_P2;Temp;Humidity;BMP_temperature;BMP_pressure;BME280_temperature;BME280_humidity;BME280_pressure;Samples;Min_cycle;Max_cycle;Signal;HPM_P1;HPM_P2
2021/12/16 04:01:51;;;;;;;7.73;6.40;;;6.20;86.70;;;;;;5427885;23;20489;-67
2021/12/16 04:04:18;;;;;;;8.43;7.57;;;6.20;86.60;;;;;;4975647;28;20509;-68
2021/12/16 04:06:45;;;;;;;9.60;7.50;;;6.30;86.60;;;;;;4975673;28;20517;-69
2021/12/16 04:09:14;;;;;;;8.40;6.30;;;6.60;86.00;;;;;;4975697;28;20449;-69
2021/12/16 04:11:47;;;;;;;7.70;6.60;;;6.60;85.50;;;;;;4975490;28;20513;-69
2021/12/16 04:14:15;;;;;;;8.23;7.07;;;6.70;85.40;;;;;;4999396;23;21013;-72
2021/12/16 04:16:45;;;;;;;8.73;6.53;;;6.70;85.10;;;;;;4975616;28;20443;-73
2021/12/16 04:19:15;;;;;;;9.80;8.13;;;6.40;85.70;;;;;;4975433;28;20446;-73
2021/12/16 04:21:44;;;;;;;7.90;6.70;;;6.30;86.30;;;;;;4975655;28;20533;-72
2021/12/16 04:24:12;;;;;;;9.23;8.00;;;6.30;86.50;;;;;;4974932;28;20981;-73
2021/12/16 04:26:42;;;;;;;9.07;6.63;;;6.50;86.40;;;;;;4975455;28;20500;-73
2021/12/16 04:29:09;;;;;;;8.13;6.90;;;6.60;85.70;;;;;;4975329;28;20434;-72
2021/12/16 04:31:37;;;;;;;9.73;7.77;;;6.60;85.60;;;;;;4975320;28;20833;-73
2021/12/16 04:34:05;;;;;;;9.97;8.60;;;6.60;85.50;;;;;;4975235;28;20888;-72
2021/12/16 04:36:33;;;;;;;8.67;7.40;;;6.40;86.10;;;;;;4975240;28;20458;-72
2021/12/16 04:39:01;;;;;;;10.00;7.20;;;6.40;86.60;;;;;;4975253;28;20485;-72
2021/12/16 04:41:28;;;;;;;10.63;8.23;;;6.40;86.50;;;;;;4974995;28;20482;-72
2021/12/16 04:43:56;;;;;;;10.40;8.30;;;6.30;86.40;;;;;;4974915;28;20457;-72
2021/12/16 04:46:28;;;;;;;10.27;7.73;;;6.40;86.70;;;;;;4975190;28;20500;-72
2021/12/16 04:48:57;;;;;;;11.20;8.80;;;6.30;86.90;;;;;;4974938;28;20434;-72
2021/12/16 04:51:26;;;;;;;8.57;7.77;;;6.40;86.40;;;;;;4975007;28;20509;-72
2021/12/16 04:53:55;;;;;;;10.13;8.73;;;6.50;86.80;;;;;;4974862;28;20557;-72
2021/12/16 04:56:22;;;;;;;10.70;8.63;;;6.40;86.50;;;;;;4974933;28;20508;-73
2021/12/16 04:58:52;;;;;;;10.50;8.90;;;6.30;87.10;;;;;;4974078;28;20557;-72
2021/12/16 05:01:19;;;;;;;9.97;8.37;;;6.40;86.70;;;;;;4974755;28;20477;-72
2021/12/16 05:03:46;;;;;;;10.90;8.60;;;6.10;87.30;;;;;;4974683;28;20446;-71
2021/12/16 05:06:14;;;;;;;11.50;9.50;;;6.30;87.50;;;;;;4974655;28;20450;-72
2021/12/16 05:08:42;;;;;;;10.47;7.87;;;6.40;86.80;;;;;;4974750;28;20449;-72
2021/12/16 05:11:14;;;;;;;9.30;7.60;;;6.40;86.60;;;;;;4974742;28;20862;-72
2021/12/16 05:13:41;;;;;;;9.40;7.53;;;6.40;86.40;;;;;;4974657;28;20442;-72
2021/12/16 05:16:08;;;;;;;8.63;7.17;;;6.30;86.00;;;;;;4974562;28;20462;-72
2021/12/16 05:18:37;;;;;;;8.10;6.37;;;6.20;86.80;;;;;;4974859;28;20458;-73
2021/12/16 05:21:06;;;;;;;8.60;7.50;;;6.10;86.60;;;;;;4974911;28;20450;-72
2021/12/16 05:26:20;;;;;;;8.60;7.63;;;5.90;87.80;;;;;;4974420;28;20984;-72
2021/12/16 05:28:51;;;;;;;10.83;6.17;;;5.80;87.80;;;;;;4974648;28;20450;-72
2021/12/16 05:31:18;;;;;;;9.17;7.43;;;5.80;88.30;;;;;;4974538;28;20457;-72
2021/12/16 05:33:45;;;;;;;10.57;6.90;;;5.90;88.60;;;;;;4974553;28;20501;-72
2021/12/16 05:36:12;;;;;;;9.20;7.60;;;6.10;88.20;;;;;;4974576;28;20450;-72
2021/12/16 05:38:39;;;;;;;8.70;7.30;;;6.30;87.60;;;;;;4974470;28;21004;-72
2021/12/16 05:41:10;;;;;;;10.87;6.80;;;6.30;86.50;;;;;;4974550;28;20477;-72
2021/12/16 05:43:39;;;;;;;9.30;7.63;;;6.30;86.90;;;;;;4974540;28;20465;-72
2021/12/16 05:46:07;;;;;;;11.23;8.73;;;6.30;86.80;;;;;;4974505;28;20868;-72
2021/12/16 05:48:36;;;;;;;9.07;7.40;;;6.30;86.70;;;;;;4974391;28;20825;-72
2021/12/16 05:51:07;;;;;;;10.30;8.10;;;6.30;86.20;;;;;;4974094;28;21040;-73
2021/12/16 05:53:34;;;;;;;11.67;8.43;;;6.30;86.40;;;;;;4974443;28;20450;-73
2021/12/16 05:56:01;;;;;;;10.23;6.97;;;6.30;86.80;;;;;;4974345;28;20470;-73
2021/12/16 05:58:28;;;;;;;8.97;6.97;;;6.40;86.40;;;;;;4974453;28;20477;-72
2021/12/16 06:00:59;;;;;;;9.70;7.67;;;6.60;86.30;;;;;;4974246;28;20461;-72
2021/12/16 06:03:27;;;;;;;9.80;7.10;;;6.60;85.40;;;;;;4974338;28;20529;-72
2021/12/16 06:05:54;;;;;;;9.00;6.97;;;6.50;85.80;;;;;;4974263;28;20466;-72
2021/12/16 06:08:21;;;;;;;9.30;7.60;;;6.60;85.40;;;;;;4974348;28;20545;-72
2021/12/16 06:13:43;;;;;;;11.93;7.53;;;6.80;84.90;;;;;;4977924;28;20418;-72
2021/12/16 06:27:12;;;;;;;10.47;8.07;;;6.50;85.70;;;;;;4977705;28;20893;-72
2021/12/16 06:29:41;;;;;;;10.17;7.87;;;6.60;85.60;;;;;;4977275;28;20442;-72
2021/12/16 06:32:09;;;;;;;8.97;7.47;;;6.70;85.60;;;;;;4977474;28;20479;-72
2021/12/16 06:34:37;;;;;;;10.83;8.40;;;6.70;85.50;;;;;;4977129;28;20478;-73
2021/12/16 06:37:04;;;;;;;9.73;8.70;;;6.80;85.50;;;;;;4977184;28;20861;-73
2021/12/16 06:39:32;;;;;;;9.63;7.03;;;6.90;85.30;;;;;;4977290;28;20457;-73
2021/12/16 06:41:59;;;;;;;9.20;7.60;;;7.00;85.20;;;;;;4976946;28;20527;-73
2021/12/16 06:44:30;;;;;;;11.53;8.60;;;7.10;84.60;;;;;;4976958;28;20981;-73
2021/12/16 06:47:02;;;;;;;9.17;7.17;;;7.00;84.50;;;;;;4977357;28;20439;-73
2021/12/16 06:49:31;;;;;;;9.17;7.43;;;6.80;84.80;;;;;;4977234;28;20922;-74
2021/12/16 06:52:02;;;;;;;8.47;7.10;;;6.80;85.00;;;;;;4977005;28;20450;-74
2021/12/16 06:54:35;;;;;;;8.03;6.33;;;6.90;85.00;;;;;;4977014;28;20834;-74
2021/12/16 06:57:17;;;;;;;8.97;7.03;;;6.80;85.00;;;;;;4977118;28;20439;-73
2021/12/16 06:59:52;;;;;;;9.73;7.67;;;6.90;84.80;;;;;;4976951;28;20850;-74
2021/12/16 07:02:37;;;;;;;10.47;7.77;;;7.00;84.60;;;;;;4976743;28;20497;-74
2021/12/16 07:05:07;;;;;;;9.40;7.60;;;7.10;84.30;;;;;;4976740;28;20943;-74
2021/12/16 07:07:35;;;;;;;10.00;7.53;;;7.20;84.20;;;;;;4976989;28;20510;-74
2021/12/16 07:10:01;;;;;;;11.07;9.10;;;7.20;83.80;;;;;;4976772;28;20454;-74
2021/12/16 07:12:35;;;;;;;12.07;8.10;;;7.20;83.80;;;;;;4976328;28;20840;-74
2021/12/16 07:15:04;;;;;;;10.63;9.03;;;7.10;83.60;;;;;;4976656;28;20540;-73
2021/12/16 07:17:31;;;;;;;10.23;7.87;;;7.00;83.70;;;;;;4976762;28;20461;-73
2021/12/16 07:19:57;;;;;;;10.13;8.37;;;6.70;84.70;;;;;;4976559;28;20453;-73
2021/12/16 07:22:25;;;;;;;11.03;7.70;;;6.70;85.60;;;;;;4975617;28;20482;-73
2021/12/16 07:24:52;;;;;;;8.43;6.43;;;6.60;85.50;;;;;;4976551;28;20887;-73
2021/12/16 07:27:19;;;;;;;9.43;7.00;;;6.70;85.60;;;;;;4976515;28;20462;-74
2021/12/16 07:29:45;;;;;;;8.33;6.90;;;6.80;85.40;;;;;;4976182;28;20508;-74
2021/12/16 07:32:12;;;;;;;8.00;7.03;;;7.00;85.00;;;;;;4976045;28;21008;-74
2021/12/16 07:34:39;;;;;;;9.03;6.47;;;7.10;84.60;;;;;;4976297;28;20499;-73
2021/12/16 07:37:08;;;;;;;8.60;6.50;;;7.00;84.60;;;;;;4976325;28;20453;-73
2021/12/16 07:39:41;;;;;;;8.40;6.37;;;7.10;84.40;;;;;;4976717;28;20477;-74
2021/12/16 07:42:11;;;;;;;9.10;7.83;;;7.10;84.30;;;;;;4976267;28;20474;-74
2021/12/16 07:44:37;;;;;;;8.53;6.70;;;7.20;84.20;;;;;;4976691;28;20472;-74
2021/12/16 07:47:09;;;;;;;9.47;7.07;;;7.20;83.60;;;;;;4976181;28;20457;-74
2021/12/16 07:49:40;;;;;;;8.90;5.80;;;7.30;83.60;;;;;;4975827;28;20910;-74
2021/12/16 07:52:11;;;;;;;8.17;6.10;;;7.30;83.50;;;;;;4975986;28;21008;-73
2021/12/16 07:54:40;;;;;;;7.63;6.50;;;7.10;83.60;;;;;;4976067;28;20520;-73
2021/12/16 07:57:07;;;;;;;8.50;6.40;;;7.10;84.00;;;;;;4975610;28;20868;-73
2021/12/16 07:59:36;;;;;;;8.60;6.67;;;7.00;83.70;;;;;;4975560;28;20863;-73
2021/12/16 08:02:08;;;;;;;7.30;6.03;;;7.00;84.10;;;;;;4975697;28;20544;-74
2021/12/16 08:04:41;;;;;;;8.20;6.63;;;7.00;84.30;;;;;;4975313;28;21040;-73
2021/12/16 08:07:09;;;;;;;7.90;6.53;;;7.20;84.10;;;;;;4975457;28;20462;-73
2021/12/16 08:09:40;;;;;;;6.97;5.60;;;7.30;83.80;;;;;;4975678;28;20454;-73
2021/12/16 08:12:12;;;;;;;9.00;7.43;;;7.40;83.70;;;;;;4975701;28;20453;-73
2021/12/16 08:14:38;;;;;;;9.30;7.43;;;7.40;83.30;;;;;;4975265;28;20490;-73
2021/12/16 08:17:05;;;;;;;6.57;5.73;;;7.40;83.40;;;;;;4975502;28;20458;-73
2021/12/16 08:19:32;;;;;;;9.93;7.23;;;7.40;83.20;;;;;;4975277;28;20434;-73
2021/12/16 08:21:59;;;;;;;8.73;6.80;;;7.40;83.10;;;;;;4975388;28;20454;-73
2021/12/16 08:24:26;;;;;;;7.20;6.50;;;7.50;83.20;;;;;;4975319;28;20466;-73
2021/12/16 08:26:53;;;;;;;8.17;6.47;;;7.50;83.00;;;;;;4975379;28;20453;-73
2021/12/16 08:29:21;;;;;;;7.70;5.73;;;7.60;82.80;;;;;;4975339;28;20450;-73
2021/12/16 08:31:49;;;;;;;7.30;6.17;;;7.60;82.60;;;;;;4975162;28;20454;-73
2021/12/16 08:34:16;;;;;;;9.53;7.10;;;7.50;82.90;;;;;;4974982;28;20470;-74
2021/12/16 08:36:44;;;;;;;8.70;6.50;;;7.60;82.80;;;;;;4975266;28;20462;-74
2021/12/16 08:39:12;;;;;;;7.40;6.60;;;7.60;82.90;;;;;;4975212;28;20442;-74
2021/12/16 08:41:41;;;;;;;7.30;6.47;;;7.70;82.70;;;;;;4975060;28;20532;-73
2021/12/16 08:44:09;;;;;;;7.97;5.70;;;7.70;82.60;;;;;;4974730;28;20488;-73
2021/12/16 08:46:41;;;;;;;7.50;6.70;;;7.70;82.40;;;;;;4975119;28;20454;-74
2021/12/16 08:49:08;;;;;;;8.13;6.40;;;7.70;82.50;;;;;;4975177;28;20439;-74
2021/12/16 08:51:38;;;;;;;8.53;7.00;;;7.70;82.70;;;;;;4975094;28;20513;-74
2021/12/16 08:54:05;;;;;;;7.17;5.50;;;7.70;82.50;;;;;;4974610;28;21041;-73
2021/12/16 08:56:33;;;;;;;8.67;6.53;;;7.60;82.60;;;;;;4974924;28;20504;-73
2021/12/16 08:59:03;;;;;;;8.43;6.77;;;7.60;82.80;;;;;;4974829;28;20453;-74
2021/12/16 09:01:33;;;;;;;9.13;6.60;;;7.60;83.20;;;;;;4974458;28;20856;-74
2021/12/16 09:04:01;;;;;;;8.90;6.33;;;7.50;83.60;;;;;;4974693;28;20482;-73
2021/12/16 09:06:28;;;;;;;9.00;6.90;;;7.50;83.60;;;;;;4975113;28;20449;-73
2021/12/16 09:08:56;;;;;;;7.93;6.10;;;7.60;83.10;;;;;;4974777;28;20453;-73
2021/12/16 09:11:25;;;;;;;8.17;5.97;;;7.60;83.10;;;;;;4974805;28;20504;-74
2021/12/16 09:13:56;;;;;;;7.50;5.87;;;7.50;82.80;;;;;;4974275;28;20953;-74
2021/12/16 09:16:25;;;;;;;6.90;5.10;;;7.60;83.40;;;;;;4976089;28;20430;-74
2021/12/16 09:18:52;;;;;;;7.37;5.50;;;7.60;83.40;;;;;;4974644;28;20501;-73
2021/12/16 09:21:26;;;;;;;6.40;5.33;;;7.60;83.50;;;;;;4974731;28;20454;-73
2021/12/16 09:23:54;;;;;;;8.77;6.30;;;7.30;83.40;;;;;;4974843;28;20528;-73
2021/12/16 09:26:21;;;;;;;7.90;6.70;;;7.40;84.10;;;;;;4974583;28;20454;-74
2021/12/16 09:28:48;;;;;;;9.10;6.67;;;7.20;84.40;;;;;;4974614;28;20505;-74
2021/12/16 09:31:18;;;;;;;6.80;5.30;;;7.20;84.80;;;;;;4974534;28;20445;-73
2021/12/16 09:33:50;;;;;;;7.60;5.40;;;7.40;84.80;;;;;;4974561;28;20442;-73
2021/12/16 09:36:19;;;;;;;7.43;5.50;;;7.60;84.30;;;;;;4974586;28;20497;-72
2021/12/16 09:38:49;;;;;;;7.23;6.00;;;7.50;84.60;;;;;;4975157;28;20509;-71
2021/12/16 09:41:16;;;;;;;8.27;6.63;;;7.70;84.50;;;;;;4974906;28;20438;-72
2021/12/16 09:43:46;;;;;;;6.87;6.10;;;7.80;84.00;;;;;;4974296;28;20556;-69
2021/12/16 09:46:16;;;;;;;8.30;5.83;;;8.00;83.40;;;;;;4977927;28;20450;-73
2021/12/16 09:48:43;;;;;;;7.20;5.80;;;7.90;83.50;;;;;;4979720;28;20446;-73
2021/12/16 09:51:16;;;;;;;7.70;5.43;;;8.00;82.90;;;;;;4978317;28;20454;-74
2021/12/16 09:53:44;;;;;;;6.50;5.00;;;8.10;82.50;;;;;;4978213;28;20439;-73
2021/12/16 09:56:12;;;;;;;6.77;5.77;;;8.20;82.00;;;;;;4977884;28;20969;-74
2021/12/16 09:58:42;;;;;;;7.40;5.60;;;8.20;81.80;;;;;;4978093;28;20578;-74
2021/12/16 10:01:10;;;;;;;7.27;6.13;;;8.10;82.40;;;;;;4978021;28;20464;-73
2021/12/16 10:03:39;;;;;;;6.60;4.60;;;8.20;82.00;;;;;;4977909;28;21012;-73
2021/12/16 10:06:06;;;;;;;7.73;6.17;;;8.00;82.10;;;;;;4978048;28;20504;-73
2021/12/16 10:08:32;;;;;;;6.70;5.87;;;7.70;83.10;;;;;;4978004;28;20460;-73
2021/12/16 10:10:59;;;;;;;7.40;5.67;;;7.80;83.60;;;;;;4977738;28;20444;-73
2021/12/16 10:13:39;;;;;;;8.53;6.77;;;8.00;82.90;;;;;;4977915;28;20454;-72
2021/12/16 10:18:52;;;;;;;8.73;5.80;;;7.70;83.40;;;;;;4977628;28;20409;-73
2021/12/16 10:21:23;;;;;;;8.13;5.60;;;7.50;84.70;;;;;;4977767;28;20480;-73
2021/12/16 10:23:50;;;;;;;7.03;5.73;;;7.80;83.90;;;;;;4977596;28;20474;-73
2021/12/16 10:26:20;;;;;;;7.97;6.50;;;8.00;83.30;;;;;;4977718;28;20457;-73
2021/12/16 10:28:50;;;;;;;6.60;5.90;;;7.80;84.00;;;;;;4977238;28;20854;-73
2021/12/16 10:31:21;;;;;;;8.00;6.53;;;8.00;83.40;;;;;;4977622;28;20492;-73
2021/12/16 10:33:51;;;;;;;7.73;6.07;;;8.20;82.90;;;;;;4977787;28;20493;-73
2021/12/16 10:36:20;;;;;;;6.70;5.73;;;8.10;82.90;;;;;;4977092;28;20934;-73
2021/12/16 10:38:50;;;;;;;7.27;5.30;;;8.10;82.70;;;;;;4977455;28;20446;-74
2021/12/16 10:41:21;;;;;;;6.30;5.27;;;8.20;82.70;;;;;;4977383;28;20516;-73
2021/12/16 10:43:51;;;;;;;8.50;6.13;;;8.40;82.30;;;;;;4977328;28;20539;-73
2021/12/16 10:46:23;;;;;;;6.70;5.70;;;8.50;81.80;;;;;;4977351;28;20868;-73
2021/12/16 10:48:52;;;;;;;7.97;6.40;;;8.40;81.90;;;;;;4977269;28;20493;-72
2021/12/16 10:51:23;;;;;;;7.97;6.83;;;8.40;81.80;;;;;;4977345;28;20496;-73
2021/12/16 10:54:21;;;;;;;6.87;5.50;;;8.50;81.80;;;;;;4976976;28;20438;-72
2021/12/16 10:56:55;;;;;;;7.00;5.53;;;8.30;82.00;;;;;;4975840;28;20431;-72
2021/12/16 10:59:28;;;;;;;6.70;5.80;;;8.30;82.30;;;;;;4977279;28;20529;-72
2021/12/16 11:02:10;;;;;;;7.53;6.00;;;8.30;82.20;;;;;;4977095;28;20426;-73
2021/12/16 11:04:43;;;;;;;6.50;5.10;;;8.30;82.10;;;;;;4976878;28;20490;-72
2021/12/16 11:07:23;;;;;;;7.10;5.47;;;8.20;82.50;;;;;;4976983;28;20439;-73
2021/12/16 11:09:56;;;;;;;7.57;5.33;;;8.20;81.40;;;;;;4976883;28;20439;-73
2021/12/16 11:12:38;;;;;;;7.30;4.27;;;8.40;81.40;;;;;;4976924;28;20442;-71
2021/12/16 11:15:12;;;;;;;6.93;5.77;;;8.50;81.10;;;;;;4976469;28;20482;-73
2021/12/16 11:17:42;;;;;;;6.20;5.03;;;8.50;81.00;;;;;;4976717;28;20434;-72
2021/12/16 11:20:21;;;;;;;7.57;5.47;;;8.40;80.60;;;;;;4976708;28;20493;-72
2021/12/16 11:22:51;;;;;;;8.57;6.43;;;8.50;81.20;;;;;;4976624;28;20442;-72
2021/12/16 11:25:23;;;;;;;6.53;5.87;;;8.40;81.20;;;;;;4976493;28;20470;-73
2021/12/16 11:27:52;;;;;;;8.53;7.10;;;8.40;81.70;;;;;;4976471;28;20434;-72
2021/12/16 11:30:38;;;;;;;8.60;6.30;;;8.50;81.30;;;;;;4976449;28;20457;-72
2021/12/16 11:33:12;;;;;;;9.37;5.60;;;8.60;81.00;;;;;;4976470;28;20430;-72
2021/12/16 11:35:43;;;;;;;7.53;5.67;;;8.30;81.30;;;;;;4976323;28;20490;-72
2021/12/16 11:38:21;;;;;;;8.07;6.70;;;8.30;82.20;;;;;;4976519;28;20430;-72
2021/12/16 11:41:08;;;;;;;10.30;7.33;;;8.40;81.20;;;;;;4975994;28;20441;-73
2021/12/16 11:43:43;;;;;;;7.60;6.43;;;8.30;82.00;;;;;;4976213;28;20561;-72
2021/12/16 11:46:20;;;;;;;7.90;6.53;;;8.50;81.60;;;;;;4975874;28;20433;-73
2021/12/16 11:48:49;;;;;;;8.20;6.47;;;8.30;81.50;;;;;;4976606;28;20411;-73
2021/12/16 11:51:20;;;;;;;6.93;6.23;;;8.40;82.00;;;;;;4976466;28;20532;-73
2021/12/16 11:53:50;;;;;;;7.83;5.13;;;8.60;81.50;;;;;;4977178;28;20772;-73
2021/12/16 11:56:19;;;;;;;6.93;5.50;;;8.60;81.10;;;;;;4976309;28;20858;-73
2021/12/16 11:58:47;;;;;;;7.57;5.90;;;8.70;80.80;;;;;;4975917;28;20453;-73
2021/12/16 12:01:23;;;;;;;7.10;5.30;;;8.70;80.30;;;;;;4975816;28;20949;-73
2021/12/16 12:03:50;;;;;;;7.70;6.80;;;8.70;80.40;;;;;;4976674;28;20470;-72
2021/12/16 12:06:26;;;;;;;7.53;6.10;;;8.70;80.50;;;;;;4975971;28;20480;-73
2021/12/16 12:08:56;;;;;;;7.20;5.70;;;8.70;80.70;;;;;;4975797;28;20438;-73
2021/12/16 12:11:27;;;;;;;6.77;5.40;;;8.70;80.80;;;;;;4977722;28;20450;-73
2021/12/16 12:13:57;;;;;;;8.37;6.50;;;8.70;81.10;;;;;;4976382;28;20430;-73
2021/12/16 12:16:30;;;;;;;8.70;6.00;;;8.60;81.00;;;;;;4975709;28;20814;-73
2021/12/16 12:18:59;;;;;;;7.10;6.30;;;8.60;81.20;;;;;;4977321;28;20529;-72
2021/12/16 12:21:33;;;;;;;7.23;6.53;;;8.70;81.00;;;;;;4976086;28;20454;-73
2021/12/16 12:24:04;;;;;;;8.50;6.43;;;8.80;80.90;;;;;;4975667;28;20527;-73
2021/12/16 12:26:34;;;;;;;6.60;5.70;;;8.80;80.40;;;;;;4976060;28;20430;-72
2021/12/16 12:29:05;;;;;;;8.77;5.30;;;8.80;81.00;;;;;;4975732;28;20500;-72
2021/12/16 12:31:38;;;;;;;7.50;5.83;;;8.80;80.90;;;;;;4975779;28;20442;-72
2021/12/16 12:34:05;;;;;;;8.00;7.10;;;8.80;80.80;;;;;;4974984;28;20982;-73
2021/12/16 12:36:32;;;;;;;7.67;6.10;;;8.90;80.80;;;;;;4975313;28;20481;-73
2021/12/16 12:39:02;;;;;;;7.50;5.70;;;8.50;80.80;;;;;;4975147;28;20476;-73
2021/12/16 12:41:29;;;;;;;8.27;5.80;;;8.50;81.90;;;;;;4975033;28;20552;-73
2021/12/16 12:43:57;;;;;;;7.50;6.30;;;8.60;81.00;;;;;;4974904;28;20490;-73
2021/12/16 12:46:25;;;;;;;6.80;5.10;;;8.70;80.90;;;;;;4974561;28;20972;-73
2021/12/16 12:48:55;;;;;;;6.83;6.13;;;8.90;80.50;;;;;;4974701;28;20934;-72
2021/12/16 12:51:32;;;;;;;8.13;6.57;;;8.50;81.30;;;;;;4974955;28;20465;-72
2021/12/16 12:53:59;;;;;;;7.80;6.83;;;8.50;81.50;;;;;;4974811;28;20520;-73
2021/12/16 12:56:31;;;;;;;7.10;5.77;;;8.70;81.00;;;;;;4975040;28;20465;-72
2021/12/16 12:59:01;;;;;;;7.43;6.53;;;8.80;80.40;;;;;;4975020;28;20415;-72
2021/12/16 13:01:37;;;;;;;9.17;6.70;;;8.70;80.50;;;;;;4974917;28;20488;-73
2021/12/16 13:04:09;;;;;;;6.80;5.10;;;8.40;81.10;;;;;;4974361;28;20489;-73
2021/12/16 13:06:53;;;;;;;7.30;5.60;;;8.50;81.70;;;;;;4974792;28;20446;-73
2021/12/16 13:09:35;;;;;;;6.80;5.80;;;8.70;81.00;;;;;;4973256;28;20862;-73
2021/12/16 13:12:23;;;;;;;6.57;4.90;;;8.40;81.80;;;;;;4974828;28;20422;-73
2021/12/16 13:14:52;;;;;;;6.77;4.70;;;8.60;80.90;;;;;;4974777;28;20532;-73
2021/12/16 13:23:23;;;;;;;6.70;5.67;;;8.80;80.60;;;;;;4974802;28;20481;-73
2021/12/16 13:23:38;;;;;;;6.27;5.67;;;9.20;79.20;;;;;;4974536;28;20401;-72
2021/12/16 13:26:27;;;;;;;6.20;5.57;;;9.30;79.10;;;;;;4974646;28;20564;-73
2021/12/16 13:29:02;;;;;;;8.43;5.17;;;9.30;78.60;;;;;;4974611;28;20844;-73
2021/12/16 13:31:38;;;;;;;5.80;4.80;;;9.50;78.40;;;;;;4974526;28;20438;-73
2021/12/16 13:34:06;;;;;;;6.50;5.10;;;9.50;77.90;;;;;;4974502;28;20462;-73
2021/12/16 13:36:42;;;;;;;8.13;5.40;;;9.60;77.70;;;;;;4974499;28;20465;-73
2021/12/16 13:39:14;;;;;;;6.40;5.50;;;9.60;77.90;;;;;;4974277;28;20910;-72
2021/12/16 13:41:59;;;;;;;7.13;5.73;;;9.50;77.70;;;;;;4975072;28;20485;-73
2021/12/16 13:45:01;;;;;;;7.50;5.93;;;9.60;77.80;;;;;;4974223;28;20902;-73
2021/12/16 13:47:46;;;;;;;6.60;5.30;;;9.60;77.60;;;;;;4973432;28;20469;-73
2021/12/16 14:01:56;;;;;;;6.50;5.03;;;9.50;77.50;;;;;;4950162;28;20516;-73
2021/12/16 14:07:27;;;;;;;7.17;5.60;;;9.30;78.50;;;;;;4965675;28;20453;-72
2021/12/16 14:10:03;;;;;;;7.10;5.67;;;9.30;78.70;;;;;;4974231;28;20437;-73
2021/12/16 14:15:22;;;;;;;7.13;5.57;;;9.20;78.90;;;;;;4970175;28;20876;-73
2021/12/16 14:17:56;;;;;;;8.00;5.63;;;9.30;78.70;;;;;;4974121;28;20465;-73
2021/12/16 14:23:25;;;;;;;7.57;5.30;;;9.40;78.20;;;;;;4974152;28;20445;-73
2021/12/16 14:37:16;;;;;;;6.70;5.70;;;9.50;77.70;;;;;;4975330;28;20434;-73
2021/12/16 14:39:57;;;;;;;6.97;6.00;;;9.50;77.70;;;;;;4977407;28;20490;-73
2021/12/16 14:42:40;;;;;;;6.63;5.93;;;9.50;77.40;;;;;;4977396;28;20537;-73
2021/12/16 14:45:32;;;;;;;7.80;6.67;;;9.50;77.60;;;;;;4977275;28;20496;-73
2021/12/16 14:50:47;;;;;;;8.63;6.10;;;9.50;77.80;;;;;;4977287;28;20409;-73
2021/12/16 14:53:23;;;;;;;10.97;9.87;;;9.50;78.00;;;;;;4977102;28;20875;-73
2021/12/16 14:55:53;;;;;;;9.23;8.23;;;9.50;78.20;;;;;;4977029;28;20525;-73
2021/12/16 14:58:23;;;;;;;8.03;6.53;;;9.50;78.00;;;;;;4976632;28;20454;-72
2021/12/16 15:00:53;;;;;;;7.20;6.13;;;9.50;78.20;;;;;;4977302;28;20545;-72
2021/12/16 15:03:22;;;;;;;9.10;6.40;;;9.40;78.70;;;;;;4976949;28;20445;-72
2021/12/16 15:05:52;;;;;;;7.83;7.00;;;9.40;78.40;;;;;;4976830;28;20496;-72
2021/12/16 15:08:26;;;;;;;7.23;6.43;;;9.30;78.70;;;;;;4976698;28;20964;-74
2021/12/16 15:10:54;;;;;;;7.17;6.10;;;9.40;78.60;;;;;;4976969;28;20899;-74
2021/12/16 15:13:28;;;;;;;7.57;6.33;;;9.40;78.60;;;;;;4976882;28;20450;-73
2021/12/16 15:16:14;;;;;;;7.80;5.80;;;9.40;78.50;;;;;;4976337;28;20481;-74
2021/12/16 15:38:18;;;;;;;8.00;6.00;;;9.50;78.10;;;;;;4976566;28;20522;-74
2021/12/16 15:40:58;;;;;;;8.57;6.97;;;9.50;78.00;;;;;;4976671;28;20590;-74
2021/12/16 15:43:32;;;;;;;9.07;7.30;;;9.40;78.10;;;;;;4975860;28;20434;-74
2021/12/16 15:46:05;;;;;;;8.67;7.77;;;9.40;78.10;;;;;;4976039;28;21012;-74
2021/12/16 15:48:32;;;;;;;8.50;7.30;;;9.40;78.10;;;;;;4976390;28;20489;-74
2021/12/16 15:51:02;;;;;;;9.03;6.77;;;9.30;78.20;;;;;;4976280;28;20501;-74
2021/12/16 15:53:32;;;;;;;9.80;8.27;;;9.30;78.40;;;;;;4976273;28;20462;-73
2021/12/16 15:56:06;;;;;;;7.37;6.17;;;9.20;78.40;;;;;;4978025;28;20474;-74
2021/12/16 15:58:35;;;;;;;8.67;7.77;;;9.20;78.30;;;;;;4975919;28;20906;-74
2021/12/16 16:01:07;;;;;;;8.70;6.90;;;9.10;78.40;;;;;;4976145;28;20458;-74
2021/12/16 16:03:35;;;;;;;7.90;5.97;;;9.10;78.50;;;;;;4976232;28;20442;-74
2021/12/16 16:06:06;;;;;;;10.60;7.07;;;9.00;78.20;;;;;;4975764;28;20486;-74
2021/12/16 16:08:38;;;;;;;9.70;7.13;;;9.00;78.30;;;;;;4975846;28;20446;-72
2021/12/16 16:11:08;;;;;;;6.53;5.90;;;8.90;78.30;;;;;;4975825;28;20446;-72
2021/12/16 16:13:41;;;;;;;8.57;7.07;;;8.90;78.30;;;;;;4976021;28;20458;-71
2021/12/16 16:16:11;;;;;;;8.30;7.07;;;8.80;78.30;;;;;;5094174;23;20836;-70
2021/12/16 16:18:42;;;;;;;9.67;8.00;;;8.80;78.40;;;;;;4975693;28;20845;-70
2021/12/16 16:21:13;;;;;;;6.63;5.63;;;8.70;78.70;;;;;;4975582;28;20441;-70
2021/12/16 16:23:43;;;;;;;7.17;6.47;;;8.70;78.80;;;;;;4975946;28;20790;-70
2021/12/16 16:26:11;;;;;;;8.13;6.30;;;8.60;79.10;;;;;;4975299;28;20482;-70
2021/12/16 16:28:41;;;;;;;7.43;5.90;;;8.60;79.40;;;;;;4975322;28;20454;-70
2021/12/16 16:31:12;;;;;;;8.07;6.30;;;8.50;79.20;;;;;;4975369;28;20486;-70
2021/12/16 16:33:40;;;;;;;11.50;6.10;;;8.50;79.50;;;;;;4975348;28;20434;-70
2021/12/16 16:36:09;;;;;;;7.40;5.20;;;8.50;79.30;;;;;;4975251;28;20477;-71
2021/12/16 16:38:39;;;;;;;6.30;4.97;;;8.30;79.90;;;;;;4975283;28;20512;-70
2021/12/16 16:41:10;;;;;;;6.40;5.00;;;8.30;79.60;;;;;;4975388;28;20501;-71
2021/12/16 16:43:40;;;;;;;6.57;5.60;;;8.30;79.70;;;;;;4975864;28;20525;-71
2021/12/16 16:46:13;;;;;;;6.67;5.70;;;8.30;79.80;;;;;;4975333;28;20560;-70
2021/12/16 16:48:51;;;;;;;7.90;5.53;;;8.30;79.30;;;;;;4975134;28;20434;-71
2021/12/16 16:51:24;;;;;;;9.40;5.40;;;8.30;79.30;;;;;;4975137;28;20493;-70
2021/12/16 16:53:59;;;;;;;6.80;5.83;;;8.30;79.30;;;;;;4975285;28;20431;-71
2021/12/16 16:56:43;;;;;;;7.10;6.40;;;8.30;79.20;;;;;;4974907;28;20473;-71
2021/12/16 16:59:13;;;;;;;8.53;7.77;;;8.30;79.00;;;;;;4974633;28;20430;-70
2021/12/16 17:01:42;;;;;;;8.80;7.07;;;8.20;78.90;;;;;;4974493;28;20976;-71
2021/12/16 17:04:11;;;;;;;7.30;5.93;;;8.10;78.90;;;;;;4974726;28;20453;-71
2021/12/16 17:06:39;;;;;;;7.87;5.70;;;8.10;78.90;;;;;;4974785;28;20494;-71
2021/12/16 17:09:06;;;;;;;8.40;7.50;;;8.10;78.80;;;;;;4974895;28;20450;-71
2021/12/16 17:11:33;;;;;;;9.00;8.07;;;8.00;78.60;;;;;;4974774;28;20497;-71
2021/12/16 17:14:12;;;;;;;9.63;6.83;;;7.90;78.70;;;;;;4974696;28;20477;-71
2021/12/16 17:19:29;;;;;;;7.43;6.30;;;7.80;78.70;;;;;;4974762;28;20426;-70
2021/12/16 17:21:55;;;;;;;6.73;6.10;;;7.80;79.20;;;;;;4974486;28;20512;-70
2021/12/16 17:24:25;;;;;;;7.23;6.43;;;7.80;79.30;;;;;;4974575;28;20820;-71
2021/12/16 17:26:55;;;;;;;9.53;7.80;;;7.70;79.10;;;;;;4974520;28;20482;-70
2021/12/16 17:29:24;;;;;;;7.03;6.20;;;7.70;79.30;;;;;;4974566;28;20455;-71
2021/12/16 17:31:58;;;;;;;8.30;7.33;;;7.60;79.50;;;;;;4974583;28;20446;-70
2021/12/16 17:34:28;;;;;;;8.00;6.80;;;7.60;79.30;;;;;;4974486;28;20543;-71
2021/12/16 17:36:59;;;;;;;7.90;6.80;;;7.60;79.30;;;;;;4974478;28;20458;-71
2021/12/16 17:39:30;;;;;;;7.47;6.77;;;7.60;79.30;;;;;;4974473;28;20785;-71
2021/12/16 17:42:00;;;;;;;8.93;7.90;;;7.60;79.20;;;;;;4974549;28;20431;-70
2021/12/16 17:44:29;;;;;;;8.47;7.40;;;7.60;79.30;;;;;;4975436;28;20466;-70
2021/12/16 17:46:59;;;;;;;9.50;7.20;;;7.50;79.10;;;;;;4974100;28;20477;-71
2021/12/16 17:49:26;;;;;;;9.37;7.77;;;7.50;78.90;;;;;;4974442;28;20850;-70
2021/12/16 17:51:53;;;;;;;9.00;7.83;;;7.50;78.80;;;;;;4974385;28;20454;-70
2021/12/16 17:54:21;;;;;;;10.40;8.70;;;7.50;78.70;;;;;;4975017;28;20454;-70
2021/12/16 17:56:53;;;;;;;10.67;9.03;;;7.40;78.70;;;;;;4975773;28;20854;-70
2021/12/16 17:59:20;;;;;;;8.67;7.77;;;7.40;78.60;;;;;;4974440;28;20834;-70
2021/12/16 18:01:49;;;;;;;7.07;6.10;;;7.40;78.70;;;;;;4974766;28;20469;-70
2021/12/16 18:04:20;;;;;;;7.23;6.50;;;7.40;78.70;;;;;;4974454;28;20446;-70
2021/12/16 18:06:51;;;;;;;8.30;7.23;;;7.30;78.90;;;;;;4977363;28;20470;-70
2021/12/16 18:09:21;;;;;;;7.33;6.63;;;7.30;79.00;;;;;;4977874;28;20508;-70
2021/12/16 18:11:52;;;;;;;8.20;7.40;;;7.30;78.90;;;;;;4977939;28;20457;-70
2021/12/16 18:14:23;;;;;;;8.73;6.23;;;7.30;79.00;;;;;;4977791;28;20474;-70
2021/12/16 18:16:52;;;;;;;9.03;6.97;;;7.20;79.20;;;;;;4977584;28;20422;-70
2021/12/16 18:19:24;;;;;;;8.00;6.93;;;7.10;79.50;;;;;;4977812;28;20453;-70
2021/12/16 18:21:54;;;;;;;8.57;6.30;;;7.10;79.60;;;;;;4977932;28;20461;-70
2021/12/16 18:24:31;;;;;;;7.57;5.63;;;7.10;79.50;;;;;;4977370;28;20449;-70
2021/12/16 18:26:58;;;;;;;7.73;6.40;;;7.10;79.10;;;;;;4977568;28;20466;-70
2021/12/16 18:29:24;;;;;;;8.03;7.17;;;7.10;79.10;;;;;;4977888;28;20450;-70
2021/12/16 18:31:53;;;;;;;10.00;8.03;;;7.10;79.10;;;;;;4977541;28;20458;-70
2021/12/16 18:34:24;;;;;;;10.50;7.90;;;7.00;79.00;;;;;;4977462;28;20457;-71